Mc Knight, Pennsylvania
Current Conditions -  °F | °C
As of 4:51 AM on Saturday 22 Nov 2014 (Local Time) from KPIT Reporting Station
Few Clouds Few Clouds  
Wind Chill: 10°   Ceiling: Unl
Heat Index: 17°   Visibility: 10mi
Dew Point:   Wind: 5mph
Humidity: 71%   Direction: 160°SSE
Pressure: 30.34"   Gusts: NA
Location:  40.5502°N, 80.0492°W
Report Text: KPIT 220951Z 16004KT 10SM FEW140 M08/M13 A3034 RMK AO2 SLP302 T10831128
Loading
Personal Weather Stations






























Interactive Weather Map New forecast layout! Learn more

10-Day Weather Forecast

Advertisements
Track Severe Weather on mobile